Boulder Creek, California
Current Conditions -  °F | °C
As of 3:53 PM on Wednesday 26 Nov 2014 (Local Time) from KSJC Reporting Station
Scattered Clouds Scattered Clouds  
Wind Chill: 66°   Ceiling: Unl
Heat Index: 66°   Visibility: 10mi
Dew Point: 44°   Wind: 7mph
Humidity: 45%   Direction: 310°NW
Pressure: 30.2"   Gusts: NA
Location:  37.13°N, 122.12°W
Report Text: KSJC 262353Z 31006KT 10SM FEW080 SCT160 19/07 A3020 RMK AO2 SLP226 T01890067 10211 20133 55007
Loading
Personal Weather Stations






























Interactive Weather Map New forecast layout! Learn more

10-Day Weather Forecast

Advertisements
Track Severe Weather on mobile